Terminal Aerodrome Forecast
Issued by NWS

Home | Current Version | Previous Version | Text Only | Print | Product List | Glossary On
Versions: 1 2 3 4 5 6 7 8 9 10 11 12 13
000
FTUS45 KABQ 202320
TAFGUP
TAF
KGUP 202320Z 2100/2124 23025G35KT P6SM SCT250
     FM210100 21014G24KT P6SM SCT100
     FM210900 26011KT P6SM SCT100
     FM211400 31011KT P6SM FEW250
     FM211900 31014KT P6SM FEW070=

USA.gov is the U.S. government's official web portal to all federal, state and local government web resources and services.